Carnival Spirit — 9HA3097 — position and weather

sailwx.info

Track history (hours):
 
Tides and Currents Weather Stations Pressure Air Temp Water Temp Dewpoint Dewpoint Depression Visibility Wind Speed Wind Dir Waves Ship Positions

Carnival Spirit

Last reported at 2018-Aug-16 17:35 UTC. Time now 2018-Aug-16 20:19 UTC.
Position S 32°20' E 152°54'.

Length 293 m; draft 8.2 m.

Type: Ship. MMSI: 229136000.

Date/timePositionNaut miles runAvg speedWind from/ knotsBaromVisibWave heightAir tempDewpointWater temp
2018-Aug-16 17:35S 32°20' E 152°54'116.8
2018-Aug-16 17:30S 32°21' E 152°53'816.2
2018-Aug-16 17:00S 32°29' E 152°52'816.0
2018-Aug-16 16:30S 32°36' E 152°48'817.1
2018-Aug-16 16:00S 32°42' E 152°41'917.4
2018-Aug-16 15:30S 32°49' E 152°34'917.2
2018-Aug-16 15:00S 32°55' E 152°26'917.2
2018-Aug-16 14:30S 33°01' E 152°20'917.0
2018-Aug-16 14:00S 33°08' E 152°13'917.5
2018-Aug-16 13:30S 33°13' E 152°05'1017.3
2018-Aug-16 12:57S 33°20' E 151°57'2017.6
2018-Aug-16 11:49S 33°35' E 151°41'517.3
2018-Aug-16 11:30S 33°39' E 151°36'917.2
2018-Aug-16 11:00S 33°45' E 151°29'816.7
2018-Aug-16 10:30S 33°51' E 151°22'5 9.9
2018-Aug-16 10:00S 33°50' E 151°16'3 4.9
2018-Aug-16 09:26S 33°52' E 151°13'0 0.0
2018-Aug-15 19:05S 33°52' E 151°13'0 0.0
2018-Aug-15 18:58S 33°52' E 151°13'0 0.2
2018-Aug-15 18:29S 33°51' E 151°13'2 4.6
2018-Aug-15 18:00S 33°51' E 151°15'510.8
2018-Aug-15 17:30S 33°50' E 151°22'510.8
2018-Aug-15 17:00S 33°46' E 151°26'510.5
2018-Aug-15 16:30S 33°43' E 151°31'510.4
2018-Aug-15 16:00S 33°39' E 151°36'714.4
2018-Aug-15 15:31S 33°34' E 151°42'816.0
2018-Aug-15 15:00S 33°29' E 151°49'815.8
2018-Aug-15 14:29S 33°23' E 151°56'715.3
2018-Aug-15 14:01S 33°18' E 152°03'815.9
2018-Aug-15 13:31S 33°15' E 152°11'714.4
2018-Aug-15 13:00S 33°08' E 152°15'713.8
2018-Aug-15 12:30S 33°04' E 152°21'713.8
2018-Aug-15 12:00S 32°59' E 152°27'713.8
2018-Aug-15 11:30S 32°54' E 152°33'713.8
2018-Aug-15 11:00S 32°49' E 152°39'713.9
2018-Aug-15 10:30S 32°45' E 152°45'714.3
2018-Aug-15 10:00S 32°40' E 152°51'917.8
2018-Aug-15 09:30S 32°32' E 152°57'1020.4
2018-Aug-15 09:00S 32°23' E 153°03'1219.8
2018-Aug-15 08:24S 32°13' E 153°10'  
2018-Aug-12 18:00S 18°06' E 164°54'   080 / 131013.010.8 22.019.026.0
2018-Aug-09 10:34S 22°23' E 166°42'218.2
2018-Aug-09 10:27S 22°23' E 166°40'817.9
2018-Aug-09 10:00S 22°21' E 166°31'816.2
2018-Aug-09 09:31S 22°17' E 166°24'2 4.7
2018-Aug-09 09:00S 22°16' E 166°26'0 0.8
2018-Aug-09 08:28S 22°16' E 166°26'0 0.0
2018-Aug-09 07:58S 22°16' E 166°26'0 0.0
2018-Aug-09 07:25S 22°16' E 166°26'0 0.0
2018-Aug-09 06:58S 22°16' E 166°26'0 0.0
2018-Aug-09 06:28S 22°16' E 166°26'0 0.0
2018-Aug-09 05:58S 22°16' E 166°26'0 0.0
2018-Aug-09 05:28S 22°16' E 166°26'0 0.0
2018-Aug-09 04:55S 22°16' E 166°26'0 0.0
2018-Aug-09 04:28S 22°16' E 166°26'0 0.0
2018-Aug-09 03:58S 22°16' E 166°26'0 0.0
2018-Aug-09 03:25S 22°16' E 166°26'0 0.0
2018-Aug-09 02:58S 22°16' E 166°26'0 0.0
2018-Aug-09 02:28S 22°16' E 166°26'0 0.0
2018-Aug-09 01:58S 22°16' E 166°26'0 0.0
2018-Aug-09 01:28S 22°16' E 166°26'0 0.0
2018-Aug-09 00:58S 22°16' E 166°26'0 0.0
2018-Aug-09 00:25S 22°16' E 166°26'0 0.0
2018-Aug-08 23:58S 22°16' E 166°26'0 0.0
2018-Aug-08 23:28S 22°16' E 166°26'0 0.0
2018-Aug-08 22:58S 22°16' E 166°26'0 0.0
2018-Aug-08 22:28S 22°16' E 166°26'0 0.0
2018-Aug-08 21:58S 22°16' E 166°26'0 0.0
2018-Aug-08 21:28S 22°16' E 166°26'0 0.7
2018-Aug-08 21:00S 22°16' E 166°26'5 9.2
2018-Aug-08 20:31S 22°16' E 166°21'816.6
2018-Aug-08 20:01S 22°22' E 166°14'510.4
2018-Aug-08 19:30S 22°26' E 166°10'510.5
2018-Aug-08 19:00S 22°29' E 166°06'5 9.1
2018-Aug-08 18:30S 22°32' E 166°02'42717.4
2018-Aug-07 18:00S 27°12' E 160°06'   180 / 301015.110.8 19.014.221.0
Track history (hours):
 
Tides and Currents Weather Stations Pressure Air Temp Water Temp Dewpoint Dewpoint Depression Visibility Wind Speed Wind Dir Waves Ship Positions

Carnival Spirit

Last reported at 2018-Aug-16 17:35 UTC. Time now 2018-Aug-16 20:19 UTC.
Position S 32°20' E 152°54'.

Length 293 m; draft 8.2 m.

Type: Ship. MMSI: 229136000.

Date/timePositionNaut miles runAvg speedWind from/ knotsBaromVisibWave heightAir tempDewpointWater temp
2018-Aug-16 17:35S 32°20' E 152°54'116.8
2018-Aug-16 17:30S 32°21' E 152°53'816.2
2018-Aug-16 17:00S 32°29' E 152°52'816.0
2018-Aug-16 16:30S 32°36' E 152°48'817.1
2018-Aug-16 16:00S 32°42' E 152°41'917.4
2018-Aug-16 15:30S 32°49' E 152°34'917.2
2018-Aug-16 15:00S 32°55' E 152°26'917.2
2018-Aug-16 14:30S 33°01' E 152°20'917.0
2018-Aug-16 14:00S 33°08' E 152°13'917.5
2018-Aug-16 13:30S 33°13' E 152°05'1017.3
2018-Aug-16 12:57S 33°20' E 151°57'2017.6
2018-Aug-16 11:49S 33°35' E 151°41'517.3
2018-Aug-16 11:30S 33°39' E 151°36'917.2
2018-Aug-16 11:00S 33°45' E 151°29'816.7
2018-Aug-16 10:30S 33°51' E 151°22'5 9.9
2018-Aug-16 10:00S 33°50' E 151°16'3 4.9
2018-Aug-16 09:26S 33°52' E 151°13'0 0.0
2018-Aug-15 19:05S 33°52' E 151°13'0 0.0
2018-Aug-15 18:58S 33°52' E 151°13'0 0.2
2018-Aug-15 18:29S 33°51' E 151°13'2 4.6
2018-Aug-15 18:00S 33°51' E 151°15'510.8
2018-Aug-15 17:30S 33°50' E 151°22'510.8
2018-Aug-15 17:00S 33°46' E 151°26'510.5
2018-Aug-15 16:30S 33°43' E 151°31'510.4
2018-Aug-15 16:00S 33°39' E 151°36'714.4
2018-Aug-15 15:31S 33°34' E 151°42'816.0
2018-Aug-15 15:00S 33°29' E 151°49'815.8
2018-Aug-15 14:29S 33°23' E 151°56'715.3
2018-Aug-15 14:01S 33°18' E 152°03'815.9
2018-Aug-15 13:31S 33°15' E 152°11'714.4
2018-Aug-15 13:00S 33°08' E 152°15'713.8
2018-Aug-15 12:30S 33°04' E 152°21'713.8
2018-Aug-15 12:00S 32°59' E 152°27'713.8
2018-Aug-15 11:30S 32°54' E 152°33'713.8
2018-Aug-15 11:00S 32°49' E 152°39'713.9
2018-Aug-15 10:30S 32°45' E 152°45'714.3
2018-Aug-15 10:00S 32°40' E 152°51'917.8
2018-Aug-15 09:30S 32°32' E 152°57'1020.4
2018-Aug-15 09:00S 32°23' E 153°03'1219.8
2018-Aug-15 08:24S 32°13' E 153°10'  
2018-Aug-12 18:00S 18°06' E 164°54'   080 / 131013.010.8 22.019.026.0
2018-Aug-09 10:34S 22°23' E 166°42'218.2
2018-Aug-09 10:27S 22°23' E 166°40'817.9
2018-Aug-09 10:00S 22°21' E 166°31'816.2
2018-Aug-09 09:31S 22°17' E 166°24'2 4.7
2018-Aug-09 09:00S 22°16' E 166°26'0 0.8
2018-Aug-09 08:28S 22°16' E 166°26'0 0.0
2018-Aug-09 07:58S 22°16' E 166°26'0 0.0
2018-Aug-09 07:25S 22°16' E 166°26'0 0.0
2018-Aug-09 06:58S 22°16' E 166°26'0 0.0
2018-Aug-09 06:28S 22°16' E 166°26'0 0.0
2018-Aug-09 05:58S 22°16' E 166°26'0 0.0
2018-Aug-09 05:28S 22°16' E 166°26'0 0.0
2018-Aug-09 04:55S 22°16' E 166°26'0 0.0
2018-Aug-09 04:28S 22°16' E 166°26'0 0.0
2018-Aug-09 03:58S 22°16' E 166°26'0 0.0
2018-Aug-09 03:25S 22°16' E 166°26'0 0.0
2018-Aug-09 02:58S 22°16' E 166°26'0 0.0
2018-Aug-09 02:28S 22°16' E 166°26'0 0.0
2018-Aug-09 01:58S 22°16' E 166°26'0 0.0
2018-Aug-09 01:28S 22°16' E 166°26'0 0.0
2018-Aug-09 00:58S 22°16' E 166°26'0 0.0
2018-Aug-09 00:25S 22°16' E 166°26'0 0.0
2018-Aug-08 23:58S 22°16' E 166°26'0 0.0
2018-Aug-08 23:28S 22°16' E 166°26'0 0.0
2018-Aug-08 22:58S 22°16' E 166°26'0 0.0
2018-Aug-08 22:28S 22°16' E 166°26'0 0.0
2018-Aug-08 21:58S 22°16' E 166°26'0 0.0
2018-Aug-08 21:28S 22°16' E 166°26'0 0.7
2018-Aug-08 21:00S 22°16' E 166°26'5 9.2
2018-Aug-08 20:31S 22°16' E 166°21'816.6
2018-Aug-08 20:01S 22°22' E 166°14'510.4
2018-Aug-08 19:30S 22°26' E 166°10'510.5
2018-Aug-08 19:00S 22°29' E 166°06'5 9.1
2018-Aug-08 18:30S 22°32' E 166°02'42717.4
2018-Aug-07 18:00S 27°12' E 160°06'   180 / 301015.110.8 19.014.221.0

Dump ship's entire track history